createdAt,value
2023-05-09T00:02:23.920Z,101256.34
2023-05-09T00:04:51.745Z,101260.52
2023-05-09T00:07:18.985Z,101259.91
2023-05-09T00:09:46.034Z,101254.41
2023-05-09T00:12:13.474Z,101253.58
2023-05-09T00:14:41.234Z,101254.92
2023-05-09T00:17:08.543Z,101251.67
2023-05-09T00:19:35.603Z,101252.20
2023-05-09T00:22:02.791Z,101247.16
2023-05-09T00:24:29.885Z,101249.65
2023-05-09T00:26:56.924Z,101252.05
2023-05-09T00:29:24.064Z,101254.21
2023-05-09T00:31:51.104Z,101254.65
2023-05-09T00:34:19.107Z,101257.17
2023-05-09T00:36:46.057Z,101256.80
2023-05-09T00:39:13.521Z,101256.80
2023-05-09T00:41:40.788Z,101258.83
2023-05-09T00:44:08.480Z,101257.51
2023-05-09T00:46:35.999Z,101258.43
2023-05-09T00:49:03.196Z,101256.88
2023-05-09T00:51:30.545Z,101255.23
2023-05-09T00:53:57.530Z,101255.27
2023-05-09T00:56:24.746Z,101255.90
2023-05-09T00:58:54.506Z,101257.35
2023-05-09T01:01:21.808Z,101256.73
2023-05-09T01:03:50.070Z,101256.70
2023-05-09T01:06:29.288Z,101254.94
2023-05-09T01:09:03.128Z,101253.83
2023-05-09T01:11:36.845Z,101253.64
2023-05-09T01:14:19.196Z,101258.02
2023-05-09T01:16:51.748Z,101259.17
2023-05-09T01:19:43.353Z,101258.52
2023-05-09T01:22:10.543Z,101265.33
2023-05-09T01:24:49.648Z,101260.53
2023-05-09T01:27:22.595Z,101260.73
2023-05-09T01:29:54.851Z,101262.35
2023-05-09T01:32:24.652Z,101258.46
2023-05-09T01:34:53.163Z,101258.66
2023-05-09T01:37:22.462Z,101260.17
2023-05-09T01:39:51.033Z,101264.89
2023-05-09T01:42:19.408Z,101261.32
2023-05-09T01:44:46.697Z,101265.09
2023-05-09T01:47:13.931Z,101264.98
2023-05-09T01:49:41.145Z,101263.16
2023-05-09T01:52:08.989Z,101266.75
2023-05-09T01:54:36.562Z,101266.14
2023-05-09T01:57:04.026Z,101266.87
2023-05-09T01:59:31.919Z,101270.36
2023-05-09T02:01:59.081Z,101270.44
2023-05-09T02:04:26.638Z,101272.30
2023-05-09T02:06:56.104Z,101270.09
2023-05-09T02:09:25.452Z,101273.30
2023-05-09T02:11:52.497Z,101270.77
2023-05-09T02:14:20.062Z,101271.38
2023-05-09T02:16:47.262Z,101272.98
2023-05-09T02:19:14.452Z,101268.23
2023-05-09T02:21:41.505Z,101270.94
2023-05-09T02:24:08.655Z,101270.63
2023-05-09T02:26:36.110Z,101271.30
2023-05-09T02:29:03.811Z,101269.26
2023-05-09T02:31:31.155Z,101271.27
2023-05-09T02:33:59.607Z,101269.84
2023-05-09T02:36:26.659Z,101275.10
2023-05-09T02:38:53.806Z,101271.03
2023-05-09T02:41:22.090Z,101272.58
2023-05-09T02:43:49.043Z,101277.23
2023-05-09T02:46:16.122Z,101283.38
2023-05-09T02:48:43.433Z,101285.11
2023-05-09T02:51:10.382Z,101283.55
2023-05-09T02:53:37.424Z,101289.41
2023-05-09T02:56:04.981Z,101288.02
2023-05-09T02:58:32.134Z,101290.21
2023-05-09T03:00:59.386Z,101291.39
2023-05-09T03:03:26.687Z,101287.07
2023-05-09T03:05:53.813Z,101290.05
2023-05-09T03:08:20.840Z,101289.08
2023-05-09T03:10:48.000Z,101292.27
2023-05-09T03:14:13.551Z,101290.17
2023-05-09T03:16:41.789Z,101295.20
2023-05-09T03:19:14.572Z,101295.73
2023-05-09T03:21:42.031Z,101294.77
2023-05-09T03:24:10.616Z,101299.08
2023-05-09T03:26:37.657Z,101300.29
2023-05-09T03:29:04.912Z,101301.16
2023-05-09T03:31:32.229Z,101302.92
2023-05-09T03:34:00.798Z,101304.61
2023-05-09T03:36:29.026Z,101307.09
2023-05-09T03:38:56.482Z,101306.88
2023-05-09T03:41:23.964Z,101305.16
2023-05-09T03:43:50.989Z,101303.55
2023-05-09T03:46:18.083Z,101306.25
2023-05-09T03:48:46.424Z,101309.16
2023-05-09T03:51:13.984Z,101307.85
2023-05-09T03:53:42.051Z,101309.07
2023-05-09T03:56:09.412Z,101310.55
2023-05-09T03:58:41.471Z,101309.91
2023-05-09T04:01:08.924Z,101309.31
2023-05-09T04:03:38.138Z,101308.05
2023-05-09T04:06:05.789Z,101306.51
2023-05-09T04:08:36.215Z,101310.71
2023-05-09T04:11:03.980Z,101305.56
2023-05-09T04:13:32.104Z,101303.14
2023-05-09T04:16:00.744Z,101308.39
2023-05-09T04:18:29.528Z,101310.10
2023-05-09T04:20:56.480Z,101309.61
2023-05-09T04:23:24.033Z,101307.60
2023-05-09T04:25:52.414Z,101312.34
2023-05-09T04:28:19.770Z,101313.82
2023-05-09T04:30:47.052Z,101310.02
2023-05-09T04:33:14.686Z,101311.34
2023-05-09T04:35:42.243Z,101314.70
2023-05-09T04:38:09.500Z,101313.92
2023-05-09T04:40:36.749Z,101317.58
2023-05-09T04:43:04.526Z,101316.59
2023-05-09T04:45:32.278Z,101317.58
2023-05-09T04:48:01.757Z,101313.23
2023-05-09T04:50:29.653Z,101317.91
2023-05-09T04:52:57.008Z,101319.21
2023-05-09T04:55:24.158Z,101322.91
2023-05-09T04:57:51.625Z,101320.81
2023-05-09T05:00:19.655Z,101323.65
2023-05-09T05:02:47.786Z,101317.82
2023-05-09T05:05:15.334Z,101315.47
2023-05-09T05:07:44.356Z,101319.91
2023-05-09T05:10:13.971Z,101320.02
2023-05-09T05:12:43.691Z,101323.39
2023-05-09T05:15:12.496Z,101319.98
2023-05-09T05:17:39.889Z,101321.84
2023-05-09T05:20:10.673Z,101322.17
2023-05-09T05:22:40.978Z,101328.83
2023-05-09T05:25:08.950Z,101324.44
2023-05-09T05:27:36.509Z,101327.05
2023-05-09T05:30:04.277Z,101324.38
2023-05-09T05:32:31.356Z,101326.05
2023-05-09T05:34:58.777Z,101329.54
2023-05-09T05:37:28.929Z,101330.96
2023-05-09T05:39:56.150Z,101333.88
2023-05-09T05:42:24.739Z,101333.86
2023-05-09T05:44:51.725Z,101334.08
2023-05-09T05:47:18.729Z,101332.39
2023-05-09T05:49:46.488Z,101328.95
2023-05-09T05:52:13.660Z,101328.58
2023-05-09T05:54:41.710Z,101325.05
2023-05-09T05:57:09.269Z,101330.39
2023-05-09T05:59:36.726Z,101333.25
2023-05-09T06:02:03.854Z,101331.47
2023-05-09T06:04:31.436Z,101337.55
2023-05-09T06:06:59.853Z,101337.41
2023-05-09T06:09:27.173Z,101338.90
2023-05-09T06:11:54.322Z,101338.77
2023-05-09T06:14:21.470Z,101335.61
2023-05-09T06:16:49.149Z,101332.81
2023-05-09T06:19:16.192Z,101335.19
2023-05-09T06:21:43.204Z,101334.02
2023-05-09T06:24:14.468Z,101331.99
2023-05-09T06:26:51.353Z,101336.15
2023-05-09T06:29:18.351Z,101338.48
2023-05-09T06:31:45.785Z,101339.48
2023-05-09T06:34:13.210Z,101336.05
2023-05-09T06:36:40.189Z,101334.45
2023-05-09T06:39:07.825Z,101330.91
2023-05-09T06:41:35.079Z,101332.75
2023-05-09T06:44:02.947Z,101334.41
2023-05-09T06:46:30.212Z,101327.85
2023-05-09T06:48:57.248Z,101328.12
2023-05-09T06:51:24.292Z,101328.71
2023-05-09T06:53:51.548Z,101332.42
2023-05-09T06:56:20.317Z,101328.52
2023-05-09T06:58:47.284Z,101333.31
2023-05-09T07:01:14.262Z,101332.70
2023-05-09T07:03:41.388Z,101327.05
2023-05-09T07:06:08.431Z,101328.02
2023-05-09T07:08:35.479Z,101327.60
2023-05-09T07:11:02.464Z,101330.95
2023-05-09T07:13:29.687Z,101326.23
2023-05-09T07:15:57.255Z,101324.57
2023-05-09T07:18:24.694Z,101318.91
2023-05-09T07:20:51.947Z,101316.81
2023-05-09T07:23:19.096Z,101314.52
2023-05-09T07:25:46.253Z,101310.84
2023-05-09T07:28:13.300Z,101302.61
2023-05-09T07:30:40.456Z,101297.33
2023-05-09T07:33:08.279Z,101301.50
2023-05-09T07:35:35.576Z,101298.94
2023-05-09T07:38:02.715Z,101295.54
2023-05-09T07:40:29.891Z,101296.06
2023-05-09T07:42:57.067Z,101295.23
2023-05-09T07:45:24.687Z,101289.48
2023-05-09T07:47:52.186Z,101284.20
2023-05-09T07:50:19.286Z,101282.05
2023-05-09T07:52:46.649Z,101284.23
2023-05-09T07:55:14.151Z,101280.66
2023-05-09T07:57:41.466Z,101285.01
2023-05-09T08:00:09.210Z,101284.21
2023-05-09T08:02:42.086Z,101282.45
2023-05-09T08:05:12.617Z,101281.45
2023-05-09T08:07:40.087Z,101281.14
2023-05-09T08:10:08.238Z,101275.45
2023-05-09T08:12:35.415Z,101277.51
2023-05-09T08:15:02.878Z,101278.95
2023-05-09T08:17:30.084Z,101277.30
2023-05-09T08:19:57.482Z,101274.97
2023-05-09T08:22:25.051Z,101267.04
2023-05-09T08:24:52.195Z,101266.27
2023-05-09T08:27:19.445Z,101264.70
2023-05-09T08:29:46.598Z,101268.40
2023-05-09T08:32:14.678Z,101268.13
2023-05-09T08:34:41.820Z,101262.11
2023-05-09T08:37:08.866Z,101258.14
2023-05-09T08:39:36.232Z,101253.50
2023-05-09T08:42:03.699Z,101253.34
2023-05-09T08:44:31.454Z,101255.79
2023-05-09T08:47:01.744Z,101254.10
2023-05-09T08:49:29.659Z,101248.76
2023-05-09T08:51:56.889Z,101250.31
2023-05-09T08:54:25.674Z,101250.36
2023-05-09T08:56:52.726Z,101249.75
2023-05-09T08:59:19.853Z,101249.38
2023-05-09T09:01:47.072Z,101246.98
2023-05-09T09:04:14.625Z,101242.80
2023-05-09T09:06:42.057Z,101245.20
2023-05-09T09:09:09.378Z,101245.97
2023-05-09T09:11:37.537Z,101243.59
2023-05-09T09:14:20.421Z,101242.19
2023-05-09T09:16:48.013Z,101240.36
2023-05-09T09:19:17.570Z,101242.68
2023-05-09T09:21:45.757Z,101236.33
2023-05-09T09:24:13.367Z,101237.39
2023-05-09T09:26:48.403Z,101236.67
2023-05-09T09:29:15.686Z,101234.84
2023-05-09T09:31:46.627Z,101236.52
2023-05-09T09:34:15.061Z,101228.08
2023-05-09T09:36:42.358Z,101225.56
2023-05-09T09:39:09.715Z,101226.41
2023-05-09T09:41:38.020Z,101227.67
2023-05-09T09:44:08.624Z,101224.88
2023-05-09T09:46:47.139Z,101223.35
2023-05-09T09:49:14.862Z,101220.98
2023-05-09T09:51:42.606Z,101222.21
2023-05-09T09:54:11.064Z,101220.79
2023-05-09T09:56:47.748Z,101218.34
2023-05-09T09:59:19.067Z,101222.45
2023-05-09T10:02:06.686Z,101218.12
2023-05-09T10:04:44.203Z,101217.36
2023-05-09T10:07:14.659Z,101222.71
2023-05-09T10:09:44.196Z,101219.39
2023-05-09T10:12:11.705Z,101218.66
2023-05-09T10:14:38.751Z,101226.79
2023-05-09T10:17:06.182Z,101220.23
2023-05-09T10:19:33.604Z,101213.68
2023-05-09T10:22:10.731Z,101215.95
2023-05-09T10:24:47.415Z,101209.02
2023-05-09T10:27:14.675Z,101206.49
2023-05-09T10:29:45.392Z,101208.00
2023-05-09T10:32:18.618Z,101202.99
2023-05-09T10:34:48.143Z,101199.02
2023-05-09T10:37:16.321Z,101201.89
2023-05-09T10:39:43.412Z,101194.71
2023-05-09T10:42:10.872Z,101197.28
2023-05-09T10:44:38.125Z,101194.36
2023-05-09T10:47:05.337Z,101192.52
2023-05-09T10:49:34.258Z,101186.95
2023-05-09T10:52:02.648Z,101186.66
2023-05-09T10:54:32.599Z,101179.94
2023-05-09T10:57:01.180Z,101183.38
2023-05-09T10:59:40.545Z,101178.52
2023-05-09T11:02:20.324Z,101177.20
2023-05-09T11:04:47.479Z,101176.64
2023-05-09T11:07:26.092Z,101173.48
2023-05-09T11:09:54.170Z,101181.14
2023-05-09T11:12:22.243Z,101179.94
2023-05-09T11:14:56.365Z,101174.51
2023-05-09T11:17:26.945Z,101173.59
2023-05-09T11:19:54.290Z,101175.23
2023-05-09T11:22:29.324Z,101175.71
2023-05-09T11:25:00.934Z,101171.76
2023-05-09T11:27:31.389Z,101167.95
2023-05-09T11:29:59.856Z,101170.18
2023-05-09T11:32:34.550Z,101167.95
2023-05-09T11:35:14.940Z,101166.62
2023-05-09T11:37:55.337Z,101166.25
2023-05-09T11:40:22.735Z,101165.02
2023-05-09T11:42:57.017Z,101159.26
2023-05-09T11:45:29.750Z,101152.73
2023-05-09T11:48:00.829Z,101151.30
2023-05-09T11:50:28.588Z,101150.76
2023-05-09T11:52:55.719Z,101148.45
2023-05-09T11:55:23.123Z,101146.51
2023-05-09T11:57:52.019Z,101145.05
2023-05-09T12:00:21.148Z,101141.53
2023-05-09T12:02:48.532Z,101135.35
2023-05-09T12:05:21.403Z,101134.86
2023-05-09T12:07:48.906Z,101135.92
2023-05-09T12:10:19.718Z,101131.87
2023-05-09T12:12:48.494Z,101133.37
2023-05-09T12:15:17.265Z,101134.45
2023-05-09T12:17:45.172Z,101136.83
2023-05-09T12:20:12.399Z,101134.34
2023-05-09T12:22:39.665Z,101130.20
2023-05-09T12:25:08.634Z,101133.77
2023-05-09T12:27:36.511Z,101129.38
2023-05-09T12:30:08.774Z,101124.77
2023-05-09T12:32:36.956Z,101125.73
2023-05-09T12:35:04.495Z,101123.84
2023-05-09T12:37:34.494Z,101120.78
2023-05-09T12:40:13.127Z,101119.69
2023-05-09T12:42:41.077Z,101119.25
2023-05-09T12:45:09.943Z,101118.25
2023-05-09T12:47:39.201Z,101110.93
2023-05-09T12:50:07.571Z,101111.69
2023-05-09T12:52:54.595Z,101110.19
2023-05-09T12:55:29.356Z,101104.36
2023-05-09T12:58:03.800Z,101109.83
2023-05-09T13:00:45.835Z,101106.15
2023-05-09T13:03:25.508Z,101107.64
2023-05-09T13:05:59.813Z,101107.42
2023-05-09T13:08:27.635Z,101107.34
2023-05-09T13:11:03.988Z,101103.31
2023-05-09T13:13:42.784Z,101104.83
2023-05-09T13:16:11.108Z,101096.52
2023-05-09T13:18:39.264Z,101094.02
2023-05-09T13:21:06.469Z,101097.85
2023-05-09T13:23:33.410Z,101091.77
2023-05-09T13:26:00.470Z,101089.46
2023-05-09T13:28:27.519Z,101086.92
2023-05-09T13:30:54.730Z,101089.01
2023-05-09T13:33:25.958Z,101089.49
2023-05-09T13:35:54.079Z,101084.22
2023-05-09T13:38:21.112Z,101079.27
2023-05-09T13:40:50.613Z,101077.06
2023-05-09T13:43:17.916Z,101080.54
2023-05-09T13:45:44.946Z,101075.23
2023-05-09T13:48:12.323Z,101074.54
2023-05-09T13:50:39.526Z,101073.62
2023-05-09T13:53:06.765Z,101075.41
2023-05-09T13:55:34.734Z,101076.66
2023-05-09T13:58:01.984Z,101072.14
2023-05-09T14:00:29.240Z,101074.02
2023-05-09T14:02:56.301Z,101077.14
2023-05-09T14:05:23.709Z,101076.63
2023-05-09T14:07:50.998Z,101073.98
2023-05-09T14:10:18.381Z,101076.19
2023-05-09T14:12:47.509Z,101077.47
2023-05-09T14:15:14.833Z,101074.71
2023-05-09T14:17:43.727Z,101076.23
2023-05-09T14:20:12.987Z,101079.39
2023-05-09T14:22:40.106Z,101078.67
2023-05-09T14:25:08.006Z,101073.80
2023-05-09T14:27:37.893Z,101073.58
2023-05-09T14:30:05.554Z,101069.30
2023-05-09T14:32:33.161Z,101065.77
2023-05-09T14:35:00.294Z,101064.00
2023-05-09T14:37:27.523Z,101065.45
2023-05-09T14:39:54.636Z,101065.05
2023-05-09T14:42:21.711Z,101064.16
2023-05-09T14:44:49.067Z,101064.39
2023-05-09T14:47:17.153Z,101063.73
2023-05-09T14:49:44.644Z,101060.80
2023-05-09T14:52:11.779Z,101060.64
2023-05-09T14:54:39.041Z,101060.41
2023-05-09T14:57:07.676Z,101057.72
2023-05-09T14:59:36.991Z,101054.02
2023-05-09T15:02:04.458Z,101053.61
2023-05-09T15:04:31.987Z,101055.27
2023-05-09T15:06:59.991Z,101051.51
2023-05-09T15:09:27.287Z,101052.12
2023-05-09T15:11:55.434Z,101050.36
2023-05-09T15:14:22.534Z,101049.23
2023-05-09T15:16:51.900Z,101048.02
2023-05-09T15:19:19.598Z,101043.46
2023-05-09T15:21:46.761Z,101041.64
2023-05-09T15:24:14.082Z,101046.20
2023-05-09T15:26:41.499Z,101044.19
2023-05-09T15:29:08.588Z,101045.66
2023-05-09T15:32:47.258Z,101047.42
2023-05-09T15:35:16.018Z,101046.24
2023-05-09T15:37:43.158Z,101045.46
2023-05-09T15:40:10.995Z,101042.23
2023-05-09T15:42:39.089Z,101043.23
2023-05-09T15:45:06.942Z,101042.79
2023-05-09T15:47:34.143Z,101041.16
2023-05-09T15:50:01.469Z,101038.49
2023-05-09T15:52:28.734Z,101038.68
2023-05-09T15:54:56.613Z,101035.13
2023-05-09T15:57:25.070Z,101036.64
2023-05-09T15:59:58.465Z,101034.59
2023-05-09T16:02:25.963Z,101028.14
2023-05-09T16:04:53.073Z,101032.14
2023-05-09T16:07:20.970Z,101031.14
2023-05-09T16:09:48.292Z,101030.02
2023-05-09T16:12:15.519Z,101030.67
2023-05-09T16:14:42.597Z,101027.87
2023-05-09T16:17:09.782Z,101020.29
2023-05-09T16:19:37.211Z,101015.70
2023-05-09T16:22:04.656Z,101014.16
2023-05-09T16:24:32.221Z,101015.60
2023-05-09T16:26:59.271Z,101017.17
2023-05-09T16:29:27.653Z,101016.73
2023-05-09T16:31:54.852Z,101020.95
2023-05-09T16:34:22.056Z,101023.42
2023-05-09T16:36:49.195Z,101021.44
2023-05-09T16:39:16.317Z,101024.07
2023-05-09T16:41:43.417Z,101019.23
2023-05-09T16:44:10.549Z,101022.30
2023-05-09T16:46:38.111Z,101020.63
2023-05-09T16:49:05.110Z,101018.80
2023-05-09T16:51:32.316Z,101018.41
2023-05-09T16:53:59.512Z,101024.51
2023-05-09T16:56:26.909Z,101029.21
2023-05-09T16:58:54.054Z,101024.99
2023-05-09T17:01:21.496Z,101026.95
2023-05-09T17:03:48.649Z,101031.64
2023-05-09T17:06:15.823Z,101028.82
2023-05-09T17:08:42.943Z,101028.35
2023-05-09T17:11:10.024Z,101031.25
2023-05-09T17:13:37.387Z,101031.56
2023-05-09T17:16:05.051Z,101028.02
2023-05-09T17:18:37.547Z,101027.83
2023-05-09T17:21:05.792Z,101025.70
2023-05-09T17:23:32.842Z,101021.85
2023-05-09T17:26:00.099Z,101027.02
2023-05-09T17:28:27.758Z,101025.17
2023-05-09T17:30:55.108Z,101031.59
2023-05-09T17:33:22.264Z,101031.44
2023-05-09T17:35:50.331Z,101028.77
2023-05-09T17:38:17.630Z,101032.63
2023-05-09T17:40:45.203Z,101034.34
2023-05-09T17:43:13.626Z,101033.77
2023-05-09T17:45:40.677Z,101032.58
2023-05-09T17:48:08.465Z,101033.98
2023-05-09T17:50:35.601Z,101033.91
2023-05-09T17:53:02.844Z,101029.87
2023-05-09T17:55:29.786Z,101031.45
2023-05-09T17:57:57.140Z,101034.58
2023-05-09T18:00:24.717Z,101033.37
2023-05-09T18:02:51.745Z,101034.95
2023-05-09T18:05:21.049Z,101030.60
2023-05-09T18:07:48.111Z,101031.27
2023-05-09T18:10:15.436Z,101030.73
2023-05-09T18:12:45.431Z,101028.14
2023-05-09T18:15:15.069Z,101031.11
2023-05-09T18:17:42.242Z,101030.77
2023-05-09T18:20:10.097Z,101030.56
2023-05-09T18:22:37.755Z,101033.65
2023-05-09T18:25:05.637Z,101036.95
2023-05-09T18:27:33.075Z,101038.36
2023-05-09T18:30:00.146Z,101035.36
2023-05-09T18:32:27.314Z,101034.23
2023-05-09T18:34:54.440Z,101034.00
2023-05-09T18:37:23.045Z,101038.23
2023-05-09T18:39:50.494Z,101039.66
2023-05-09T18:42:17.517Z,101036.77
2023-05-09T18:44:44.569Z,101037.02
2023-05-09T18:47:12.508Z,101033.75
2023-05-09T18:49:39.686Z,101030.63
2023-05-09T18:52:06.837Z,101030.90
2023-05-09T18:54:35.827Z,101028.79
2023-05-09T18:57:03.489Z,101032.88
2023-05-09T18:59:30.604Z,101036.39
2023-05-09T19:01:58.116Z,101034.08
2023-05-09T19:04:25.627Z,101028.61
2023-05-09T19:06:52.824Z,101031.60
2023-05-09T19:09:19.816Z,101028.61
2023-05-09T19:11:47.824Z,101029.32
2023-05-09T19:14:15.354Z,101028.05
2023-05-09T19:16:42.477Z,101028.21
2023-05-09T19:19:10.096Z,101030.73
2023-05-09T19:21:37.457Z,101029.92
2023-05-09T19:24:06.406Z,101021.96
2023-05-09T19:26:33.550Z,101021.73
2023-05-09T19:29:01.798Z,101024.60
2023-05-09T19:31:31.537Z,101020.89
2023-05-09T19:33:58.734Z,101016.86
2023-05-09T19:36:25.793Z,101022.00
2023-05-09T19:38:53.139Z,101018.41
2023-05-09T19:41:20.285Z,101022.20
2023-05-09T19:43:48.979Z,101019.94
2023-05-09T19:46:16.930Z,101026.34
2023-05-09T19:48:44.096Z,101024.30
2023-05-09T19:51:12.620Z,101020.52
2023-05-09T19:53:40.242Z,101018.55
2023-05-09T19:56:08.717Z,101016.99
2023-05-09T19:58:35.765Z,101017.56
2023-05-09T20:01:02.814Z,101017.47
2023-05-09T20:03:30.008Z,101014.08
2023-05-09T20:05:57.324Z,101018.24
2023-05-09T20:08:25.800Z,101014.30
2023-05-09T20:10:53.054Z,101012.58
2023-05-09T20:13:20.417Z,101011.20
2023-05-09T20:15:47.841Z,101003.59
2023-05-09T20:18:16.556Z,101005.40
2023-05-09T20:20:43.604Z,101007.83
2023-05-09T20:23:10.757Z,101005.50
2023-05-09T20:25:37.793Z,101004.81
2023-05-09T20:28:04.739Z,101004.98
2023-05-09T20:30:32.097Z,101002.73
2023-05-09T20:33:02.299Z,101001.86
2023-05-09T20:35:29.272Z,101001.35
2023-05-09T20:37:56.312Z,100999.92
2023-05-09T20:40:23.766Z,100999.66
2023-05-09T20:42:52.884Z,100999.36
2023-05-09T20:45:20.218Z,100999.85
2023-05-09T20:47:47.310Z,100997.84
2023-05-09T20:50:14.782Z,101000.61
2023-05-09T20:52:42.087Z,100994.10
2023-05-09T20:55:09.643Z,100991.94
2023-05-09T20:57:36.589Z,100993.01
2023-05-09T21:00:05.007Z,100995.55
2023-05-09T21:02:33.616Z,100992.24
2023-05-09T21:05:00.908Z,100990.85
2023-05-09T21:07:28.465Z,100992.60
2023-05-09T21:09:57.364Z,100991.58
2023-05-09T21:12:24.333Z,100990.64
2023-05-09T21:14:51.866Z,100991.30
2023-05-09T21:17:19.566Z,100992.31
2023-05-09T21:19:46.684Z,100989.74
2023-05-09T21:22:14.550Z,100991.02
2023-05-09T21:24:41.590Z,100995.45
2023-05-09T21:27:08.534Z,100989.63
2023-05-09T21:29:37.736Z,100987.67
2023-05-09T21:32:04.781Z,100988.41
2023-05-09T21:34:31.723Z,100985.30
2023-05-09T21:36:58.778Z,100979.94
2023-05-09T21:39:25.925Z,100978.17
2023-05-09T21:41:52.985Z,100979.00
2023-05-09T21:44:20.886Z,100971.29
2023-05-09T21:46:47.913Z,100971.27
2023-05-09T21:49:18.370Z,100968.15
2023-05-09T21:51:45.624Z,100961.40
2023-05-09T21:54:12.741Z,100958.20
2023-05-09T21:56:40.022Z,100953.69
2023-05-09T21:59:07.162Z,100954.06
2023-05-09T22:01:34.166Z,100958.99
2023-05-09T22:04:02.398Z,100954.91
2023-05-09T22:06:30.059Z,100956.10
2023-05-09T22:08:57.203Z,100954.19
2023-05-09T22:11:25.283Z,100955.08
2023-05-09T22:13:52.327Z,100958.17
2023-05-09T22:16:19.407Z,100954.80
2023-05-09T22:18:46.421Z,100955.83
2023-05-09T22:21:13.387Z,100955.69
2023-05-09T22:23:40.314Z,100958.27
2023-05-09T22:26:08.174Z,100957.33
2023-05-09T22:28:35.736Z,100959.56
2023-05-09T22:31:02.784Z,100957.94
2023-05-09T22:33:30.548Z,100955.27
2023-05-09T22:35:58.315Z,100951.41
2023-05-09T22:38:25.261Z,100954.34
2023-05-09T22:40:52.248Z,100955.66
2023-05-09T22:43:20.399Z,100954.98
2023-05-09T22:45:47.758Z,100953.87
2023-05-09T22:48:14.957Z,100951.83
2023-05-09T22:50:41.960Z,100951.44
2023-05-09T22:53:09.463Z,100948.34
2023-05-09T22:55:36.823Z,100945.46
2023-05-09T22:58:04.071Z,100941.13
2023-05-09T23:00:31.527Z,100940.45
2023-05-09T23:03:01.543Z,100936.36
2023-05-09T23:05:30.337Z,100942.19
2023-05-09T23:07:57.479Z,100944.39
2023-05-09T23:10:24.536Z,100940.44
2023-05-09T23:12:51.595Z,100940.06
2023-05-09T23:15:18.748Z,100936.41
2023-05-09T23:17:45.983Z,100933.89
2023-05-09T23:20:14.900Z,100934.25
2023-05-09T23:22:42.122Z,100937.98
2023-05-09T23:25:09.692Z,100935.90
2023-05-09T23:27:36.873Z,100935.65
2023-05-09T23:30:04.946Z,100934.77
2023-05-09T23:32:32.014Z,100932.70
2023-05-09T23:35:00.585Z,100932.60
2023-05-09T23:37:27.628Z,100929.74
2023-05-09T23:39:54.774Z,100925.70
2023-05-09T23:42:24.071Z,100923.66
2023-05-09T23:44:51.202Z,100927.67
2023-05-09T23:47:18.332Z,100922.58
2023-05-09T23:49:49.087Z,100926.26
2023-05-09T23:52:16.280Z,100923.45
2023-05-09T23:54:43.267Z,100921.66
2023-05-09T23:57:10.318Z,100919.26
2023-05-09T23:59:37.421Z,100918.35
